createdAt,value
2022-11-25T00:01:34.336Z,11.90
2022-11-25T00:06:34.414Z,7.68
2022-11-25T00:09:11.746Z,12.90
2022-11-25T00:11:42.871Z,13.35
2022-11-25T00:14:15.612Z,10.07
2022-11-25T00:16:48.136Z,8.15
2022-11-25T00:19:16.911Z,8.52
2022-11-25T00:21:44.301Z,12.02
2022-11-25T00:24:17.662Z,7.32
2022-11-25T00:26:45.411Z,8.10
2022-11-25T00:29:14.245Z,11.13
2022-11-25T00:31:42.267Z,11.75
2022-11-25T00:34:14.713Z,6.10
2022-11-25T00:36:42.578Z,10.15
2022-11-25T00:39:18.573Z,10.98
2022-11-25T00:42:05.503Z,9.38
2022-11-25T00:44:35.894Z,9.80
2022-11-25T00:47:17.442Z,9.68
2022-11-25T00:49:52.697Z,8.48
2022-11-25T00:52:26.846Z,7.53
2022-11-25T00:54:55.140Z,12.55
2022-11-25T00:57:24.054Z,10.32
2022-11-25T00:59:51.614Z,10.80
2022-11-25T01:02:20.221Z,7.15
2022-11-25T01:04:47.895Z,9.60
2022-11-25T01:07:16.101Z,8.88
2022-11-25T01:09:44.310Z,9.80
2022-11-25T01:12:12.128Z,11.68
2022-11-25T01:14:39.742Z,8.73
2022-11-25T01:17:07.268Z,10.52
2022-11-25T01:19:38.386Z,9.13
2022-11-25T01:22:09.443Z,9.52
2022-11-25T01:24:36.946Z,14.35
2022-11-25T01:27:04.517Z,9.10
2022-11-25T01:29:31.881Z,7.28
2022-11-25T01:31:59.278Z,17.15
2022-11-25T01:34:28.585Z,9.15
2022-11-25T01:36:55.977Z,8.93
2022-11-25T01:39:32.065Z,9.88
2022-11-25T01:42:02.079Z,12.75
2022-11-25T01:44:33.075Z,8.63
2022-11-25T01:47:18.655Z,11.18
2022-11-25T01:50:05.194Z,11.48
2022-11-25T01:52:46.502Z,8.20
2022-11-25T01:55:23.583Z,10.05
2022-11-25T01:58:00.992Z,10.35
2022-11-25T02:00:28.494Z,12.23
2022-11-25T02:02:57.824Z,6.97
2022-11-25T02:06:08.983Z,10.88
2022-11-25T02:08:36.623Z,9.48
2022-11-25T02:11:04.787Z,10.27
2022-11-25T02:13:33.896Z,9.13
2022-11-25T02:16:01.359Z,9.73
2022-11-25T02:18:29.289Z,10.07
2022-11-25T02:20:56.692Z,11.20
2022-11-25T02:24:18.224Z,14.38
2022-11-25T02:26:45.874Z,9.07
2022-11-25T02:29:13.526Z,9.30
2022-11-25T02:31:40.878Z,13.85
2022-11-25T02:34:09.690Z,12.82
2022-11-25T02:36:37.372Z,10.93
2022-11-25T02:39:05.351Z,15.80
2022-11-25T02:41:44.498Z,11.55
2022-11-25T02:44:12.066Z,10.05
2022-11-25T02:46:39.566Z,10.75
2022-11-25T02:49:09.614Z,13.15
2022-11-25T02:51:42.020Z,15.32
2022-11-25T02:54:09.875Z,9.90
2022-11-25T09:06:12.305Z,16.65
2022-11-25T09:12:36.420Z,22.35
2022-11-25T09:19:33.787Z,28.10
2022-11-25T09:27:23.287Z,24.65
2022-11-25T09:36:33.499Z,22.52
2022-11-25T09:46:33.139Z,28.25
2022-11-25T09:49:52.304Z,19.27
2022-11-25T09:52:58.692Z,19.48
2022-11-25T09:55:30.634Z,19.08
2022-11-25T09:58:42.430Z,21.48
2022-11-25T10:01:26.174Z,21.23
2022-11-25T10:04:20.296Z,20.00
2022-11-25T10:06:58.259Z,20.65
2022-11-25T10:09:34.082Z,17.73
2022-11-25T10:12:32.539Z,16.35
2022-11-25T10:15:32.623Z,15.52
2022-11-25T10:18:42.409Z,14.45
2022-11-25T10:21:14.133Z,20.15
2022-11-25T10:23:41.500Z,17.67
2022-11-25T10:26:22.530Z,19.45
2022-11-25T10:29:14.736Z,17.83
2022-11-25T10:31:45.391Z,15.73
2022-11-25T10:37:26.140Z,12.18
2022-11-25T10:39:53.535Z,16.10
2022-11-25T10:42:27.414Z,18.88
2022-11-25T10:44:55.911Z,13.15
2022-11-25T10:48:28.727Z,13.25
2022-11-25T10:52:00.399Z,15.35
2022-11-25T10:54:29.665Z,10.15
2022-11-25T10:57:19.919Z,13.55
2022-11-25T11:00:01.775Z,13.50
2022-11-25T11:02:41.727Z,9.45
2022-11-25T11:05:08.869Z,8.73
2022-11-25T11:07:45.371Z,11.32
2022-11-25T11:10:26.639Z,10.65
2022-11-25T11:13:25.792Z,10.13
2022-11-25T11:15:54.861Z,12.10
2022-11-25T11:18:41.968Z,9.88
2022-11-25T11:21:35.864Z,6.70
2022-11-25T11:24:38.060Z,10.02
2022-11-25T11:27:25.723Z,9.75
2022-11-25T11:30:23.895Z,9.10
2022-11-25T11:33:36.767Z,12.18
2022-11-25T11:36:51.601Z,13.77
2022-11-25T11:40:02.931Z,14.50
2022-11-25T11:43:20.589Z,10.25
2022-11-25T11:46:30.517Z,13.73
2022-11-25T11:49:43.976Z,12.80
2022-11-25T11:53:05.786Z,8.32
2022-11-25T11:56:35.988Z,8.88
2022-11-25T11:59:55.850Z,12.48
2022-11-25T12:03:18.599Z,11.57
2022-11-25T12:05:48.201Z,13.93
2022-11-25T12:08:34.274Z,11.18
2022-11-25T12:11:13.533Z,13.25
2022-11-25T12:14:23.547Z,14.07
2022-11-25T12:16:59.243Z,14.73
2022-11-25T12:20:07.082Z,10.57
2022-11-25T12:23:43.836Z,17.02
2022-11-25T12:26:47.068Z,14.48
2022-11-25T12:29:44.109Z,17.75
2022-11-25T12:32:48.494Z,14.52
2022-11-25T12:35:34.000Z,13.20
2022-11-25T12:38:47.803Z,14.25
2022-11-25T12:41:59.613Z,11.07
2022-11-25T12:45:11.986Z,16.40
2022-11-25T12:47:39.258Z,15.32
2022-11-25T12:50:14.463Z,12.10
2022-11-25T12:53:11.750Z,12.90
2022-11-25T12:55:40.707Z,10.98
2022-11-25T12:59:33.630Z,11.27
2022-11-25T13:03:14.139Z,7.28
2022-11-25T13:06:27.133Z,5.60
2022-11-25T13:09:43.339Z,4.25
2022-11-25T13:13:01.646Z,4.93
2022-11-25T13:15:44.967Z,5.90
2022-11-25T13:18:29.082Z,5.60
2022-11-25T13:21:05.327Z,9.07
2022-11-25T13:23:57.305Z,6.70
2022-11-25T13:26:45.820Z,6.75
2022-11-25T13:29:12.847Z,8.38
2022-11-25T13:32:03.285Z,9.35
2022-11-25T13:34:34.296Z,8.85
2022-11-25T13:37:33.510Z,7.95
2022-11-25T13:40:39.129Z,9.15
2022-11-25T13:43:22.567Z,6.72
2022-11-25T13:45:50.221Z,8.43
2022-11-25T13:48:30.600Z,8.05
2022-11-25T13:51:24.819Z,6.03
2022-11-25T13:54:06.411Z,6.85
2022-11-25T13:56:37.517Z,12.02
2022-11-25T13:59:10.730Z,9.35
2022-11-25T14:01:46.690Z,8.68
2022-11-25T14:04:16.221Z,7.10
2022-11-25T14:07:27.998Z,9.27
2022-11-25T14:10:45.867Z,7.57
2022-11-25T14:14:04.135Z,4.82
2022-11-25T14:17:24.644Z,6.88
2022-11-25T14:20:23.059Z,5.63
2022-11-25T14:23:52.234Z,5.72
2022-11-25T14:26:49.647Z,9.48
2022-11-25T14:29:32.564Z,5.70
2022-11-25T14:32:23.108Z,7.90
2022-11-25T14:35:09.740Z,10.88
2022-11-25T14:38:07.739Z,8.85
2022-11-25T14:41:19.858Z,11.40
2022-11-25T14:44:04.663Z,6.85
2022-11-25T14:46:32.209Z,10.43
2022-11-25T14:49:07.700Z,7.30
2022-11-25T14:51:39.274Z,7.38
2022-11-25T14:54:10.392Z,11.60
2022-11-25T14:56:39.240Z,8.52
2022-11-25T14:59:10.482Z,9.35
2022-11-25T15:01:50.227Z,9.63
2022-11-25T15:04:25.407Z,11.30
2022-11-25T15:07:01.892Z,4.82
2022-11-25T15:09:42.258Z,9.40
2022-11-25T15:12:20.365Z,5.78
2022-11-25T15:14:55.714Z,6.63
2022-11-25T15:17:37.340Z,8.18
2022-11-25T15:20:17.576Z,9.00
2022-11-25T15:22:53.958Z,10.90
2022-11-25T15:25:21.571Z,11.73
2022-11-25T15:27:53.184Z,7.45
2022-11-25T15:30:31.835Z,10.95
2022-11-25T15:32:59.531Z,8.52
2022-11-25T15:35:27.955Z,7.50
2022-11-25T15:37:55.367Z,5.32
2022-11-25T15:40:44.374Z,11.38
2022-11-25T15:43:30.280Z,6.03
2022-11-25T15:46:05.789Z,10.63
2022-11-25T15:48:46.190Z,8.07
2022-11-25T15:51:48.447Z,7.63
2022-11-25T15:54:42.554Z,5.72
2022-11-25T15:57:37.426Z,7.47
2022-11-25T16:00:23.250Z,9.35
2022-11-25T16:02:59.570Z,7.38
2022-11-25T16:05:37.507Z,4.00
2022-11-25T16:08:33.753Z,8.88
2022-11-25T16:11:19.356Z,9.13
2022-11-25T16:13:50.372Z,7.03
2022-11-25T16:16:31.297Z,7.45
2022-11-25T16:19:16.624Z,6.63
2022-11-25T16:21:54.635Z,5.22
2022-11-25T16:24:41.765Z,7.30
2022-11-25T16:27:23.583Z,7.43
2022-11-25T16:30:20.370Z,11.15
2022-11-25T16:32:47.632Z,10.77
2022-11-25T16:35:22.176Z,7.30
2022-11-25T16:37:49.943Z,7.15
2022-11-25T16:40:19.145Z,5.65
2022-11-25T16:42:53.357Z,8.57
2022-11-25T16:45:28.272Z,5.82
2022-11-25T16:47:55.958Z,6.43
2022-11-25T16:50:24.035Z,7.55
2022-11-25T16:52:51.458Z,10.52
2022-11-25T16:55:19.011Z,13.68
2022-11-25T16:57:46.995Z,7.68
2022-11-25T17:00:18.100Z,7.40
2022-11-25T17:02:45.755Z,8.80
2022-11-25T17:05:25.675Z,9.63
2022-11-25T17:07:53.177Z,8.63
2022-11-25T17:10:21.632Z,9.88
2022-11-25T17:12:50.828Z,10.52
2022-11-25T17:15:35.941Z,10.38
2022-11-25T17:18:07.073Z,7.90
2022-11-25T17:20:34.946Z,8.98
2022-11-25T17:23:02.670Z,7.22
2022-11-25T17:25:36.536Z,7.32
2022-11-25T17:28:04.811Z,9.90
2022-11-25T17:30:32.497Z,9.07
2022-11-25T17:33:18.348Z,11.98
2022-11-25T17:35:46.400Z,9.70
2022-11-25T17:38:20.147Z,9.48
2022-11-25T17:40:47.916Z,6.28
2022-11-25T17:43:20.989Z,11.48
2022-11-25T17:45:48.344Z,5.82
2022-11-25T17:48:18.311Z,7.88
2022-11-25T17:50:46.875Z,7.68
2022-11-25T17:53:14.231Z,7.88
2022-11-25T17:55:42.009Z,11.45
2022-11-25T17:58:14.669Z,8.82
2022-11-25T18:00:44.924Z,8.82
2022-11-25T18:03:16.361Z,10.73
2022-11-25T18:05:44.014Z,11.73
2022-11-25T18:08:11.307Z,11.82
2022-11-25T18:10:39.619Z,10.68
2022-11-25T18:13:06.963Z,9.82
2022-11-25T18:15:34.886Z,9.07
2022-11-25T18:18:22.193Z,14.52
2022-11-25T18:20:50.856Z,11.05
2022-11-25T18:23:19.471Z,11.60
2022-11-25T18:25:47.407Z,13.40
2022-11-25T18:28:26.903Z,10.55
2022-11-25T18:30:58.430Z,9.32
2022-11-25T18:33:25.847Z,8.95
2022-11-25T18:35:53.134Z,7.38
2022-11-25T18:38:20.404Z,9.93
2022-11-25T18:40:53.299Z,11.00
2022-11-25T18:43:26.622Z,11.40
2022-11-25T18:45:54.404Z,9.55
2022-11-25T18:48:27.700Z,5.85
2022-11-25T18:50:57.043Z,7.72
2022-11-25T18:53:24.351Z,11.35
2022-11-25T18:55:52.168Z,9.50
